Time;durP1;ratioP1;P1;durP2;ratioP2;P2;SDS_P1;SDS_P2;PMS_P1;PMS_P2;Temp;Humidity;BMP_temperature;BMP_pressure;BME280_temperature;BME280_humidity;BME280_pressure;Samples;Min_cycle;Max_cycle;Signal;HPM_P1;HPM_P2
2022/11/02 00:00:01;;;;;;;2.03;1.03;;;10.40;99.90;;;;;;5114326;28;20202;-87
2022/11/02 00:02:33;;;;;;;2.40;1.00;;;10.20;99.90;;;;;;5098631;28;20195;-87
2022/11/02 00:05:04;;;;;;;2.67;1.30;;;10.10;99.90;;;;;;5088027;28;20226;-85
2022/11/02 00:07:36;;;;;;;3.10;1.50;;;10.20;99.90;;;;;;5110082;28;20206;-85
2022/11/02 00:10:11;;;;;;;4.40;1.80;;;10.20;99.90;;;;;;5113931;28;20198;-86
2022/11/02 00:12:42;;;;;;;4.87;1.70;;;10.20;99.90;;;;;;5112956;28;20286;-87
2022/11/02 00:15:14;;;;;;;4.00;1.67;;;10.10;99.90;;;;;;5113468;28;20295;-86
2022/11/02 00:17:48;;;;;;;3.50;1.80;;;10.10;99.90;;;;;;5113132;28;20285;-86
2022/11/02 00:20:21;;;;;;;3.27;1.60;;;10.00;99.90;;;;;;5114681;28;20216;-86
2022/11/02 00:22:56;;;;;;;3.73;1.97;;;9.80;99.90;;;;;;5112861;28;20674;-85
2022/11/02 00:25:30;;;;;;;3.40;1.70;;;9.80;99.90;;;;;;5110810;28;20201;-83
2022/11/02 00:28:01;;;;;;;3.07;1.77;;;9.80;99.90;;;;;;5105054;28;20622;-87
2022/11/02 00:30:32;;;;;;;2.77;1.90;;;9.70;99.90;;;;;;5100322;28;20229;-85
2022/11/02 00:33:03;;;;;;;4.27;2.50;;;9.60;99.90;;;;;;5107336;28;20203;-86
2022/11/02 00:35:35;;;;;;;4.97;1.80;;;9.60;99.90;;;;;;5093597;28;20579;-86
2022/11/02 00:38:06;;;;;;;5.43;2.43;;;9.50;99.90;;;;;;5112233;28;20202;-86
2022/11/02 00:40:40;;;;;;;4.30;2.00;;;9.40;99.90;;;;;;5113424;28;20245;-86
2022/11/02 00:43:11;;;;;;;4.43;1.80;;;9.40;99.90;;;;;;5113364;28;20213;-83
2022/11/02 00:45:42;;;;;;;2.67;2.00;;;9.30;99.90;;;;;;5113722;28;20288;-87
2022/11/02 00:48:13;;;;;;;3.77;2.03;;;9.30;99.90;;;;;;5114115;28;20225;-85
2022/11/02 00:50:44;;;;;;;4.93;2.10;;;9.20;99.90;;;;;;5110438;28;20564;-86
2022/11/02 00:53:15;;;;;;;5.40;1.80;;;9.10;99.90;;;;;;5095857;28;20244;-86
2022/11/02 00:55:50;;;;;;;5.53;2.40;;;9.00;99.90;;;;;;5114675;28;20244;-85
2022/11/02 00:58:21;;;;;;;3.00;1.90;;;8.90;99.90;;;;;;5115895;28;20237;-93
2022/11/02 01:00:52;;;;;;;2.73;2.10;;;8.80;99.90;;;;;;5097047;28;20225;-91
2022/11/02 01:03:23;;;;;;;5.13;2.00;;;8.60;99.90;;;;;;5097908;28;20226;-88
2022/11/02 01:05:54;;;;;;;4.73;1.73;;;8.50;99.90;;;;;;5120776;28;20241;-85
2022/11/02 01:08:25;;;;;;;4.97;2.00;;;8.40;99.90;;;;;;5134752;28;20236;-87
2022/11/02 01:11:10;;;;;;;4.00;2.17;;;8.30;99.90;;;;;;5129814;28;20214;-86
2022/11/02 01:13:41;;;;;;;2.93;2.00;;;8.20;99.90;;;;;;5119182;28;20195;-88
2022/11/02 01:16:16;;;;;;;3.23;1.93;;;8.10;99.90;;;;;;5120220;28;20226;-88
2022/11/02 01:18:54;;;;;;;3.47;2.00;;;8.00;99.90;;;;;;5112401;28;20301;-88
2022/11/02 01:21:25;;;;;;;5.53;2.10;;;8.00;99.90;;;;;;5112993;28;20247;-88
2022/11/02 01:23:57;;;;;;;4.97;2.20;;;7.90;99.90;;;;;;5114138;28;20281;-88
2022/11/02 01:26:30;;;;;;;2.80;1.80;;;7.80;99.90;;;;;;5115148;28;20206;-88
2022/11/02 01:29:02;;;;;;;2.93;1.90;;;7.70;99.90;;;;;;5115964;28;20297;-89
2022/11/02 01:31:33;;;;;;;3.23;1.90;;;7.70;99.90;;;;;;5100332;28;20226;-89
2022/11/02 01:34:04;;;;;;;2.90;1.50;;;7.60;99.90;;;;;;5094302;28;20211;-89
2022/11/02 01:36:36;;;;;;;2.60;1.83;;;7.60;99.90;;;;;;5097882;28;20307;-89
2022/11/02 01:39:07;;;;;;;4.50;1.90;;;7.50;99.90;;;;;;5114222;28;20233;-86
2022/11/02 01:41:41;;;;;;;2.93;2.00;;;7.50;99.90;;;;;;5113384;28;20265;-87
2022/11/02 01:44:29;;;;;;;6.10;1.90;;;7.40;99.90;;;;;;5106497;28;20215;-87
2022/11/02 01:47:04;;;;;;;6.73;2.20;;;7.40;99.90;;;;;;5078382;28;20191;-87
2022/11/02 01:49:40;;;;;;;4.27;2.00;;;7.40;99.90;;;;;;5093220;28;20265;-87
2022/11/02 01:52:16;;;;;;;3.53;2.10;;;7.40;99.90;;;;;;5093366;28;20659;-87
2022/11/02 01:54:52;;;;;;;4.33;2.10;;;7.40;99.90;;;;;;5111538;28;20697;-86
2022/11/02 01:57:28;;;;;;;3.83;2.17;;;7.30;99.90;;;;;;5114275;28;20887;-85
2022/11/02 02:00:03;;;;;;;3.23;2.10;;;7.30;99.90;;;;;;5115102;28;20216;-87
2022/11/02 02:02:35;;;;;;;2.60;2.00;;;7.20;99.90;;;;;;5114506;28;20379;-84
2022/11/02 02:05:09;;;;;;;4.70;2.43;;;7.20;99.90;;;;;;5100787;28;20245;-85
2022/11/02 02:07:42;;;;;;;4.40;2.60;;;7.10;99.90;;;;;;5098451;28;20218;-86
2022/11/02 02:10:13;;;;;;;5.97;2.30;;;7.10;99.90;;;;;;5115195;28;20234;-84
2022/11/02 02:12:47;;;;;;;3.77;2.87;;;7.00;99.90;;;;;;5116875;28;20289;-85
2022/11/02 02:15:18;;;;;;;5.53;3.17;;;7.10;99.90;;;;;;5115383;28;20201;-85
2022/11/02 02:17:54;;;;;;;4.70;2.90;;;7.00;99.90;;;;;;5113683;28;20226;-85
2022/11/02 02:20:41;;;;;;;5.37;3.60;;;6.90;99.90;;;;;;5110606;28;20284;-83
2022/11/02 02:23:52;;;;;;;10.20;4.03;;;6.90;99.90;;;;;;5115066;28;20285;-86
2022/11/02 02:26:45;;;;;;;7.47;4.70;;;6.90;99.90;;;;;;5017108;28;20248;-84
2022/11/02 02:29:23;;;;;;;8.50;5.47;;;6.80;99.90;;;;;;5114017;28;20282;-85
2022/11/02 02:31:59;;;;;;;10.83;6.50;;;6.70;99.90;;;;;;5115266;28;20696;-86
2022/11/02 02:34:38;;;;;;;11.00;6.73;;;6.70;99.90;;;;;;5099634;28;20217;-85
2022/11/02 02:37:17;;;;;;;9.60;6.47;;;6.70;99.90;;;;;;5095386;28;20238;-84
2022/11/02 02:39:53;;;;;;;12.13;7.13;;;6.60;99.90;;;;;;5097651;28;20731;-84
2022/11/02 02:42:27;;;;;;;12.17;7.00;;;6.50;99.90;;;;;;5093966;28;20678;-84
2022/11/02 02:45:11;;;;;;;10.23;5.50;;;6.50;99.90;;;;;;5101597;28;20198;-83
2022/11/02 02:47:48;;;;;;;10.03;5.80;;;6.50;99.90;;;;;;5101183;28;20366;-84
2022/11/02 02:50:22;;;;;;;10.07;5.13;;;6.40;99.90;;;;;;5108702;28;20233;-83
2022/11/02 02:52:56;;;;;;;6.77;4.27;;;6.30;99.90;;;;;;5116344;28;20232;-84
2022/11/02 02:55:32;;;;;;;6.70;3.87;;;6.30;99.90;;;;;;5113315;28;20273;-84
2022/11/02 02:58:05;;;;;;;5.23;4.07;;;6.20;99.90;;;;;;5116162;28;20245;-84
2022/11/02 03:00:40;;;;;;;6.80;3.50;;;6.20;99.90;;;;;;5096018;28;20229;-86
2022/11/02 03:03:18;;;;;;;5.93;4.47;;;6.10;99.90;;;;;;5105842;28;20198;-87
2022/11/02 03:06:05;;;;;;;5.97;3.97;;;6.10;99.90;;;;;;5110807;28;20216;-86
2022/11/02 03:08:40;;;;;;;6.10;3.93;;;6.10;99.90;;;;;;5113802;28;20207;-85
2022/11/02 03:11:15;;;;;;;5.67;3.67;;;6.00;99.90;;;;;;5099907;28;20249;-86
2022/11/02 03:14:01;;;;;;;7.87;4.33;;;6.00;99.90;;;;;;5097509;28;20223;-87
2022/11/02 03:16:45;;;;;;;4.73;3.53;;;6.00;99.90;;;;;;5102372;28;20713;-89
2022/11/02 03:19:22;;;;;;;5.77;3.10;;;5.90;99.90;;;;;;5115096;28;20219;-88
2022/11/02 03:22:01;;;;;;;4.17;3.20;;;5.80;99.90;;;;;;5094965;28;20220;-89
2022/11/02 03:24:36;;;;;;;5.80;3.30;;;5.80;99.90;;;;;;5095790;28;20268;-87
2022/11/02 03:27:17;;;;;;;5.00;3.80;;;5.70;99.90;;;;;;5098229;28;20226;-88
2022/11/02 03:29:56;;;;;;;6.93;4.17;;;5.60;99.90;;;;;;5095234;28;20246;-87
2022/11/02 03:32:34;;;;;;;8.47;5.03;;;5.60;99.90;;;;;;5094694;28;20668;-87
2022/11/02 03:35:12;;;;;;;7.13;5.40;;;5.60;99.90;;;;;;5103522;28;20302;-86
2022/11/02 03:37:47;;;;;;;6.70;5.30;;;5.60;99.90;;;;;;5110007;28;20317;-87
2022/11/02 03:40:21;;;;;;;10.57;5.87;;;5.50;99.90;;;;;;5114844;28;20234;-89
2022/11/02 03:42:54;;;;;;;6.87;4.90;;;5.50;99.90;;;;;;5097121;28;20206;-87
2022/11/02 03:45:28;;;;;;;5.70;4.50;;;5.50;99.90;;;;;;5110298;28;20231;-87
2022/11/02 03:48:05;;;;;;;7.10;4.40;;;5.50;99.90;;;;;;5115605;28;20236;-87
2022/11/02 03:50:41;;;;;;;8.33;3.97;;;5.50;99.90;;;;;;5115257;28;20211;-87
2022/11/02 03:53:18;;;;;;;7.77;6.70;;;5.50;99.90;;;;;;5114419;28;20244;-87
2022/11/02 03:55:55;;;;;;;5.60;4.93;;;5.50;99.90;;;;;;5115428;28;20225;-86
2022/11/02 03:58:26;;;;;;;6.40;4.40;;;5.50;99.90;;;;;;5114937;28;20567;-86
2022/11/02 04:01:02;;;;;;;7.47;4.40;;;5.50;99.90;;;;;;5111298;28;20219;-87
2022/11/02 04:03:38;;;;;;;7.53;3.77;;;5.50;99.90;;;;;;5095394;28;20298;-88
2022/11/02 04:06:11;;;;;;;4.47;3.43;;;5.50;99.90;;;;;;5094388;28;20294;-87
2022/11/02 04:08:45;;;;;;;10.30;4.97;;;5.50;99.90;;;;;;5097050;28;20234;-87
2022/11/02 04:19:26;;;;;;;13.50;6.70;;;5.30;99.90;;;;;;5110121;28;20226;-88
2022/11/02 04:19:43;;;;;;;10.40;7.57;;;5.30;99.90;;;;;;5096040;28;20606;-91
2022/11/02 04:25:21;;;;;;;9.50;5.77;;;5.30;99.90;;;;;;5106693;28;20206;-88
2022/11/02 04:27:53;;;;;;;6.93;4.77;;;5.30;99.90;;;;;;5094387;28;20211;-89
2022/11/02 04:30:25;;;;;;;8.03;4.53;;;5.30;99.90;;;;;;5115283;28;20694;-88
2022/11/02 04:35:46;;;;;;;6.30;4.47;;;5.30;99.90;;;;;;5104391;28;20974;-86
2022/11/02 04:43:52;;;;;;;4.13;3.13;;;5.40;99.90;;;;;;5102386;28;20293;-88
2022/11/02 04:46:26;;;;;;;7.80;3.37;;;5.50;99.90;;;;;;5117110;28;20608;-88
2022/11/02 04:48:58;;;;;;;5.70;3.20;;;5.60;99.90;;;;;;5113727;28;20301;-87
2022/11/02 04:51:31;;;;;;;6.53;3.50;;;5.80;99.90;;;;;;5109434;28;20297;-88
2022/11/02 04:54:02;;;;;;;5.27;3.33;;;5.80;99.90;;;;;;5104877;28;20207;-87
2022/11/02 04:56:33;;;;;;;6.10;3.60;;;5.90;99.90;;;;;;5098237;28;20538;-86
2022/11/02 04:59:04;;;;;;;4.53;2.87;;;6.00;99.90;;;;;;5094475;28;20289;-92
2022/11/02 05:01:35;;;;;;;6.33;3.50;;;6.00;99.90;;;;;;5097254;28;20302;-87
2022/11/02 05:04:07;;;;;;;6.10;3.37;;;6.00;99.90;;;;;;5109658;28;20600;-87
2022/11/02 05:06:40;;;;;;;7.13;3.67;;;6.00;99.90;;;;;;5112722;28;20300;-86
2022/11/02 05:09:12;;;;;;;4.43;3.10;;;6.00;99.90;;;;;;5113792;28;20654;-87
2022/11/02 05:11:44;;;;;;;9.13;3.47;;;5.90;99.90;;;;;;5112189;28;20293;-87
2022/11/02 05:14:18;;;;;;;5.40;3.47;;;5.90;99.90;;;;;;5102752;28;20285;-87
2022/11/02 05:16:52;;;;;;;4.67;3.23;;;5.90;99.90;;;;;;5104739;28;20208;-87
2022/11/02 05:19:23;;;;;;;5.70;2.93;;;5.90;99.90;;;;;;5095059;28;20207;-86
2022/11/02 05:21:56;;;;;;;5.70;3.17;;;5.90;99.90;;;;;;5101984;28;20195;-88
2022/11/02 05:24:27;;;;;;;7.93;3.50;;;5.90;99.90;;;;;;5093213;28;20201;-88
2022/11/02 05:26:59;;;;;;;4.87;3.70;;;5.90;99.90;;;;;;5093264;28;20218;-88
2022/11/02 05:29:30;;;;;;;7.10;3.40;;;5.80;99.90;;;;;;5103680;28;20206;-88
2022/11/02 05:32:01;;;;;;;7.43;3.70;;;5.80;99.90;;;;;;5111213;28;20203;-86
2022/11/02 05:34:32;;;;;;;5.37;3.80;;;5.80;99.90;;;;;;5098358;28;20202;-87
2022/11/02 05:37:06;;;;;;;5.13;3.43;;;5.80;99.90;;;;;;5097291;28;20206;-86
2022/11/02 05:39:37;;;;;;;5.33;3.60;;;5.80;99.90;;;;;;5107788;28;20210;-86
2022/11/02 05:42:10;;;;;;;7.30;4.23;;;5.80;99.90;;;;;;5116366;28;20238;-87
2022/11/02 05:44:41;;;;;;;6.00;4.17;;;5.80;99.90;;;;;;5116829;28;20265;-88
2022/11/02 05:47:12;;;;;;;5.47;3.70;;;5.80;99.90;;;;;;5117814;28;20255;-87
2022/11/02 05:49:43;;;;;;;5.17;3.90;;;5.90;99.90;;;;;;5100870;28;20207;-85
2022/11/02 05:52:16;;;;;;;4.63;3.60;;;5.90;99.90;;;;;;5115748;28;20271;-87
2022/11/02 05:54:47;;;;;;;6.30;3.80;;;5.90;99.90;;;;;;5120550;28;20637;-88
2022/11/02 05:57:19;;;;;;;8.07;3.93;;;6.00;99.90;;;;;;5096542;28;20222;-87
2022/11/02 05:59:51;;;;;;;5.53;4.07;;;6.00;99.90;;;;;;5115007;28;20293;-88
2022/11/02 06:02:23;;;;;;;5.60;3.93;;;6.10;99.90;;;;;;5113334;28;20568;-88
2022/11/02 06:04:54;;;;;;;5.43;4.13;;;6.00;99.90;;;;;;5121853;28;20194;-86
2022/11/02 06:07:28;;;;;;;7.50;4.07;;;6.00;99.90;;;;;;5116016;28;20202;-87
2022/11/02 06:10:01;;;;;;;5.10;3.43;;;6.00;99.90;;;;;;5117505;28;20210;-88
2022/11/02 06:12:36;;;;;;;5.67;3.93;;;6.00;99.90;;;;;;5108428;28;20259;-88
2022/11/02 06:15:08;;;;;;;5.93;3.63;;;6.00;99.90;;;;;;5094938;28;20838;-86
2022/11/02 06:17:40;;;;;;;4.33;3.23;;;6.00;99.90;;;;;;5096422;28;20322;-86
2022/11/02 06:20:13;;;;;;;7.77;3.87;;;6.00;99.90;;;;;;5112456;28;20206;-87
2022/11/02 06:22:46;;;;;;;4.20;3.60;;;6.10;99.90;;;;;;5108659;28;20234;-87
2022/11/02 06:25:18;;;;;;;6.40;3.03;;;6.10;99.90;;;;;;5097661;28;20203;-87
2022/11/02 06:27:55;;;;;;;4.93;3.40;;;6.10;99.90;;;;;;5115762;28;20242;-88
2022/11/02 06:30:27;;;;;;;6.03;3.30;;;6.10;99.90;;;;;;5105022;28;20555;-87
2022/11/02 06:32:59;;;;;;;4.70;3.10;;;6.20;99.90;;;;;;5105882;28;20230;-86
2022/11/02 06:35:36;;;;;;;4.70;3.30;;;6.20;99.90;;;;;;5093646;28;20638;-88
2022/11/02 06:38:09;;;;;;;4.33;2.87;;;6.20;99.90;;;;;;5102235;28;20628;-87
2022/11/02 06:40:42;;;;;;;4.63;3.10;;;6.20;99.90;;;;;;5115414;28;20289;-86
2022/11/02 06:43:13;;;;;;;3.60;3.17;;;6.20;99.90;;;;;;5115073;28;20263;-88
2022/11/02 06:45:47;;;;;;;6.63;3.03;;;6.20;99.90;;;;;;5105863;28;20263;-87
2022/11/02 06:48:19;;;;;;;3.73;2.77;;;6.20;99.90;;;;;;5120995;28;20270;-88
2022/11/02 06:50:51;;;;;;;6.90;3.00;;;6.20;99.90;;;;;;5115907;28;20182;-86
2022/11/02 06:53:25;;;;;;;6.53;3.03;;;6.20;99.90;;;;;;5134200;28;20202;-86
2022/11/02 06:55:57;;;;;;;4.17;2.97;;;6.10;99.90;;;;;;4759915;28;10000260;-87
2022/11/02 06:58:28;;;;;;;4.80;3.10;;;6.10;99.90;;;;;;5107875;28;20313;-87
2022/11/02 07:01:00;;;;;;;4.70;2.83;;;6.10;99.90;;;;;;5110586;28;20211;-87
2022/11/02 07:03:32;;;;;;;3.80;3.00;;;6.10;99.90;;;;;;5102657;28;20207;-87
2022/11/02 07:06:03;;;;;;;5.50;2.90;;;6.20;99.90;;;;;;5106868;28;20282;-86
2022/11/02 07:08:44;;;;;;;3.60;2.70;;;6.10;99.90;;;;;;5107614;28;20836;-85
2022/11/02 07:11:16;;;;;;;4.63;3.10;;;6.10;99.90;;;;;;5109550;28;20195;-87
2022/11/02 07:13:47;;;;;;;4.07;3.20;;;6.10;99.90;;;;;;5096901;28;20240;-86
2022/11/02 07:16:18;;;;;;;4.10;2.87;;;6.10;99.90;;;;;;5117064;28;20289;-87
2022/11/02 07:18:49;;;;;;;5.97;2.77;;;6.10;99.90;;;;;;5107311;28;20690;-85
2022/11/02 07:21:20;;;;;;;6.03;2.80;;;6.00;99.90;;;;;;5114364;27;20200;-86
2022/11/02 07:23:53;;;;;;;5.27;3.27;;;5.90;99.90;;;;;;5102913;28;20238;-86
2022/11/02 07:26:25;;;;;;;5.17;3.43;;;5.90;99.90;;;;;;5089872;28;20244;-87
2022/11/02 07:28:56;;;;;;;4.77;3.37;;;5.90;99.90;;;;;;5103757;28;20207;-87
2022/11/02 07:31:28;;;;;;;4.00;3.10;;;5.90;99.90;;;;;;5113060;28;20214;-85
2022/11/02 07:33:59;;;;;;;5.03;3.07;;;5.90;99.90;;;;;;5120950;27;20226;-87
2022/11/02 07:36:30;;;;;;;6.23;3.10;;;5.80;99.90;;;;;;5114908;28;20218;-89
2022/11/02 07:39:03;;;;;;;3.60;2.80;;;5.80;99.90;;;;;;5115376;28;20226;-87
2022/11/02 07:41:34;;;;;;;6.17;3.13;;;5.80;99.90;;;;;;5096539;28;20632;-87
2022/11/02 07:44:05;;;;;;;4.93;2.50;;;5.80;99.90;;;;;;5096976;28;20272;-87
2022/11/02 07:46:37;;;;;;;4.13;2.57;;;5.70;99.90;;;;;;5098944;28;20639;-88
2022/11/02 07:49:08;;;;;;;4.73;2.70;;;5.70;99.90;;;;;;5103026;28;20289;-88
2022/11/02 07:51:40;;;;;;;2.50;2.30;;;5.60;99.90;;;;;;5114648;28;20221;-87
2022/11/02 07:54:14;;;;;;;4.70;2.43;;;5.60;99.90;;;;;;5095789;28;20206;-87
2022/11/02 07:56:46;;;;;;;3.80;2.40;;;5.60;99.90;;;;;;5095152;28;20232;-87
2022/11/02 07:59:17;;;;;;;3.70;2.33;;;5.60;99.90;;;;;;5100907;28;20238;-88
2022/11/02 08:01:49;;;;;;;5.67;2.77;;;5.50;99.90;;;;;;5094665;28;20214;-87
2022/11/02 08:04:20;;;;;;;3.27;2.63;;;5.50;99.90;;;;;;5098478;28;20578;-86
2022/11/02 08:06:51;;;;;;;5.77;3.20;;;5.60;99.90;;;;;;5094088;28;20651;-87
2022/11/02 08:09:24;;;;;;;6.07;2.90;;;5.60;99.90;;;;;;5106943;28;20289;-88
2022/11/02 08:11:57;;;;;;;4.27;2.93;;;5.50;99.90;;;;;;5113889;28;20713;-91
2022/11/02 08:14:29;;;;;;;5.73;3.30;;;5.50;99.90;;;;;;5091741;28;20226;-87
2022/11/02 08:17:01;;;;;;;3.83;3.03;;;5.40;99.90;;;;;;5097186;28;20239;-87
2022/11/02 08:19:32;;;;;;;4.90;3.30;;;5.40;99.90;;;;;;5099054;28;20764;-86
2022/11/02 08:22:04;;;;;;;3.57;2.40;;;5.40;99.90;;;;;;5104011;28;20301;-86
2022/11/02 08:24:38;;;;;;;4.37;2.30;;;5.40;99.90;;;;;;5106934;28;20202;-86
2022/11/02 08:27:09;;;;;;;4.90;3.00;;;5.40;99.90;;;;;;5113270;28;20210;-85
2022/11/02 08:29:41;;;;;;;4.60;3.17;;;5.40;99.90;;;;;;5099112;28;20621;-87
2022/11/02 08:32:13;;;;;;;3.37;2.97;;;5.50;99.90;;;;;;5093260;28;20282;-87
2022/11/02 08:34:45;;;;;;;3.60;2.47;;;5.50;99.90;;;;;;5108397;28;20206;-86
2022/11/02 08:37:16;;;;;;;2.30;1.83;;;5.40;99.90;;;;;;5115906;28;20293;-87
2022/11/02 08:39:50;;;;;;;2.77;2.00;;;5.30;99.90;;;;;;5110114;28;20317;-88
2022/11/02 08:42:22;;;;;;;3.47;1.93;;;5.20;99.90;;;;;;5093341;28;20219;-87
2022/11/02 08:44:52;;;;;;;2.17;1.63;;;5.20;99.90;;;;;;5093364;28;20199;-87
2022/11/02 08:47:23;;;;;;;1.90;1.50;;;5.10;99.90;;;;;;5093824;28;20554;-88
2022/11/02 08:49:55;;;;;;;1.73;1.40;;;5.10;99.90;;;;;;5093976;28;20312;-88
2022/11/02 08:52:26;;;;;;;1.53;1.23;;;4.90;99.90;;;;;;5092683;28;20213;-87
2022/11/02 08:55:00;;;;;;;1.60;1.20;;;4.90;99.90;;;;;;5092934;28;20215;-86
2022/11/02 08:57:31;;;;;;;1.57;1.37;;;4.90;99.90;;;;;;5093801;28;20226;-87
2022/11/02 09:00:02;;;;;;;2.13;1.37;;;4.80;99.90;;;;;;5095797;28;20246;-87
2022/11/02 09:02:33;;;;;;;1.20;1.10;;;4.70;99.90;;;;;;5096207;28;20245;-88
2022/11/02 09:05:05;;;;;;;2.67;1.53;;;4.80;99.90;;;;;;5104591;28;20202;-86
2022/11/02 09:07:36;;;;;;;5.37;1.60;;;4.80;99.90;;;;;;5076716;28;20584;-86
2022/11/02 09:10:12;;;;;;;1.53;1.37;;;4.70;99.90;;;;;;5115566;27;20293;-87
2022/11/02 09:12:43;;;;;;;3.67;2.40;;;4.70;99.90;;;;;;5114407;28;20582;-85
2022/11/02 09:15:14;;;;;;;2.80;1.20;;;4.70;99.90;;;;;;5096352;28;20285;-87
2022/11/02 09:17:48;;;;;;;1.60;1.27;;;4.70;99.90;;;;;;5096595;28;20672;-87
2022/11/02 09:20:20;;;;;;;2.00;1.30;;;4.70;99.90;;;;;;5113987;28;20232;-87
2022/11/02 09:22:53;;;;;;;1.70;1.30;;;4.70;99.90;;;;;;5108112;28;20256;-86
2022/11/02 09:25:27;;;;;;;1.60;1.40;;;4.80;99.90;;;;;;5112330;28;20293;-86
2022/11/02 09:27:59;;;;;;;2.37;1.27;;;4.80;99.90;;;;;;5113593;28;20256;-86
2022/11/02 09:30:32;;;;;;;1.53;1.43;;;4.90;99.90;;;;;;5113737;28;20233;-86
2022/11/02 09:33:05;;;;;;;3.20;1.30;;;4.90;99.90;;;;;;5115156;28;20198;-86
2022/11/02 09:35:38;;;;;;;3.13;1.20;;;4.90;99.90;;;;;;5093318;28;20203;-86
2022/11/02 09:38:09;;;;;;;1.93;1.10;;;5.00;99.90;;;;;;5104100;28;20234;-86
2022/11/02 09:40:45;;;;;;;1.43;1.10;;;5.10;99.90;;;;;;5115486;28;20337;-86
2022/11/02 09:43:27;;;;;;;1.93;1.33;;;5.10;99.90;;;;;;5114946;28;20208;-86
2022/11/02 09:46:06;;;;;;;1.97;1.20;;;5.10;99.90;;;;;;5097321;28;20206;-85
2022/11/02 09:48:42;;;;;;;0.73;0.73;;;5.20;99.90;;;;;;5097800;28;20282;-85
2022/11/02 09:51:17;;;;;;;1.37;0.90;;;5.20;99.90;;;;;;5103942;28;20230;-87
2022/11/02 09:53:57;;;;;;;1.27;0.97;;;5.30;99.90;;;;;;5113454;28;20512;-87
2022/11/02 09:56:32;;;;;;;0.80;0.80;;;5.30;99.90;;;;;;5113654;28;20202;-86
2022/11/02 09:59:07;;;;;;;1.93;0.90;;;5.30;99.90;;;;;;5115293;28;20288;-86
2022/11/02 10:01:58;;;;;;;1.57;0.73;;;5.30;99.90;;;;;;5096373;28;20311;-86
2022/11/02 10:04:53;;;;;;;2.07;0.80;;;5.30;99.90;;;;;;5090020;28;20218;-86
2022/11/02 10:07:35;;;;;;;0.97;0.70;;;5.30;99.90;;;;;;5097343;28;20558;-86
2022/11/02 10:10:14;;;;;;;1.40;0.70;;;5.20;99.90;;;;;;5122676;28;20214;-86
2022/11/02 10:12:59;;;;;;;1.80;0.80;;;5.00;99.90;;;;;;5102964;28;20755;-86
2022/11/02 10:15:37;;;;;;;1.23;0.80;;;4.90;99.90;;;;;;5107002;28;20210;-86
2022/11/02 10:18:17;;;;;;;1.17;0.80;;;5.10;99.90;;;;;;5106835;28;20689;-85
2022/11/02 10:20:51;;;;;;;3.27;0.80;;;5.00;99.90;;;;;;5097100;28;20238;-85
2022/11/02 10:23:29;;;;;;;0.60;0.60;;;5.10;99.90;;;;;;5096358;28;20242;-85
2022/11/02 10:26:02;;;;;;;0.70;0.70;;;5.10;99.90;;;;;;5096803;28;20313;-87
2022/11/02 10:28:40;;;;;;;1.23;0.80;;;5.00;99.90;;;;;;5096107;28;20727;-85
2022/11/02 10:31:26;;;;;;;1.20;1.00;;;5.10;99.90;;;;;;5100435;28;20331;-85
2022/11/02 10:34:00;;;;;;;1.20;0.90;;;5.10;99.90;;;;;;5095879;28;20727;-86
2022/11/02 10:36:45;;;;;;;1.40;0.97;;;5.00;99.90;;;;;;5096451;28;20207;-86
2022/11/02 10:39:26;;;;;;;1.00;0.90;;;5.00;99.90;;;;;;5113670;28;20202;-88
2022/11/02 10:42:13;;;;;;;1.20;0.93;;;5.00;99.90;;;;;;5116214;28;20272;-93
2022/11/02 10:45:04;;;;;;;0.97;0.83;;;5.00;99.90;;;;;;5110704;28;20203;-87
2022/11/02 10:47:42;;;;;;;1.43;1.13;;;5.00;99.90;;;;;;5107171;28;20285;-87
2022/11/02 10:50:35;;;;;;;1.37;1.10;;;5.00;99.90;;;;;;5116809;28;20293;-87
2022/11/02 10:53:14;;;;;;;1.73;1.13;;;5.00;99.90;;;;;;5115810;28;20666;-88
2022/11/02 10:56:13;;;;;;;1.50;1.30;;;5.10;99.90;;;;;;5099492;28;20205;-87
2022/11/02 10:58:51;;;;;;;1.23;1.13;;;5.00;99.90;;;;;;5096221;28;20519;-86
2022/11/02 11:01:24;;;;;;;1.47;1.10;;;5.10;99.90;;;;;;5078571;28;20256;-87
2022/11/02 11:03:58;;;;;;;3.80;1.30;;;5.00;99.90;;;;;;5104490;28;20784;-86
2022/11/02 11:06:32;;;;;;;2.43;1.30;;;5.00;99.90;;;;;;5096032;28;20242;-86
2022/11/02 11:09:06;;;;;;;1.87;1.37;;;5.10;99.90;;;;;;5101462;28;20293;-86
2022/11/02 11:11:39;;;;;;;2.70;1.30;;;5.10;99.90;;;;;;5100840;28;20296;-87
2022/11/02 11:14:18;;;;;;;1.30;1.03;;;5.20;99.90;;;;;;5115415;28;20202;-85
2022/11/02 11:17:19;;;;;;;1.77;1.20;;;5.30;99.90;;;;;;5115166;28;20209;-86
2022/11/02 11:20:31;;;;;;;1.33;1.23;;;5.30;99.90;;;;;;5115752;28;20225;-86
2022/11/02 11:23:23;;;;;;;1.23;1.00;;;5.40;99.90;;;;;;5097611;28;20236;-85
2022/11/02 11:26:02;;;;;;;2.23;1.27;;;5.50;99.90;;;;;;5115979;28;20207;-84
2022/11/02 11:28:39;;;;;;;1.17;1.07;;;5.50;99.90;;;;;;5101117;28;20643;-86
2022/11/02 11:31:16;;;;;;;1.80;1.40;;;5.60;99.90;;;;;;5097864;28;20206;-86
2022/11/02 11:34:02;;;;;;;2.80;1.23;;;5.50;99.90;;;;;;5094569;28;20301;-85
2022/11/02 11:36:35;;;;;;;3.10;1.30;;;5.50;99.90;;;;;;5094091;28;20239;-86
2022/11/02 11:39:23;;;;;;;1.63;1.23;;;5.40;99.90;;;;;;5113612;28;20249;-85
2022/11/02 11:41:54;;;;;;;1.60;1.43;;;5.30;99.90;;;;;;5099716;28;20326;-85
2022/11/02 11:44:26;;;;;;;1.63;1.20;;;5.30;99.90;;;;;;5095472;28;20743;-84
2022/11/02 11:46:58;;;;;;;1.40;1.30;;;5.30;99.90;;;;;;5104551;28;20282;-86
2022/11/02 11:49:34;;;;;;;2.13;1.63;;;5.20;99.90;;;;;;5096538;28;20234;-86
2022/11/02 11:52:28;;;;;;;3.23;1.40;;;5.30;99.90;;;;;;5096876;28;20295;-87
2022/11/02 11:55:02;;;;;;;2.30;1.70;;;5.30;99.90;;;;;;5101530;28;20244;-87
2022/11/02 11:57:34;;;;;;;2.47;1.60;;;5.20;99.90;;;;;;5115631;28;20596;-88
2022/11/02 12:00:27;;;;;;;1.47;1.30;;;5.10;99.90;;;;;;5115739;28;20293;-86
2022/11/02 12:03:09;;;;;;;2.80;1.87;;;5.10;99.90;;;;;;5093450;28;21761;-85
2022/11/02 12:05:53;;;;;;;3.60;1.50;;;5.10;99.90;;;;;;5095055;28;20558;-86
2022/11/02 12:08:37;;;;;;;1.50;1.40;;;5.10;99.90;;;;;;5095376;28;20276;-86
2022/11/02 12:11:27;;;;;;;1.70;1.60;;;5.10;99.90;;;;;;5095450;28;20298;-87
2022/11/02 12:14:13;;;;;;;2.70;1.70;;;5.10;99.90;;;;;;5105531;28;20314;-86
2022/11/02 12:17:01;;;;;;;2.67;1.80;;;5.20;99.90;;;;;;5097792;28;20280;-86
2022/11/02 12:19:49;;;;;;;2.50;1.80;;;5.10;99.90;;;;;;5117980;28;20285;-86
2022/11/02 12:22:31;;;;;;;1.73;1.63;;;5.10;99.90;;;;;;5111630;28;20269;-85
2022/11/02 12:25:41;;;;;;;1.80;1.70;;;5.10;99.90;;;;;;5114828;28;20234;-85
2022/11/02 12:28:29;;;;;;;1.97;1.77;;;5.20;99.90;;;;;;5108376;28;20206;-86
2022/11/02 12:31:11;;;;;;;1.83;1.70;;;5.00;99.90;;;;;;5108269;28;20635;-86
2022/11/02 12:33:55;;;;;;;2.60;1.80;;;5.00;99.90;;;;;;5110965;28;20294;-86
2022/11/02 12:36:39;;;;;;;1.73;1.30;;;5.10;99.90;;;;;;5125264;28;20266;-86
2022/11/02 12:39:41;;;;;;;3.83;1.50;;;5.00;99.90;;;;;;5121959;28;20209;-86
2022/11/02 12:42:26;;;;;;;1.93;1.63;;;5.00;99.90;;;;;;5129146;28;20281;-86
2022/11/02 12:45:13;;;;;;;2.23;1.57;;;5.00;99.90;;;;;;5109228;28;20203;-87
2022/11/02 12:47:56;;;;;;;2.57;1.63;;;5.00;99.90;;;;;;5109651;28;20202;-86
2022/11/02 12:50:38;;;;;;;1.90;1.40;;;5.00;99.90;;;;;;5100655;28;20280;-87
2022/11/02 12:53:22;;;;;;;1.43;1.27;;;5.00;99.90;;;;;;5113690;28;20773;-86
2022/11/02 12:56:00;;;;;;;3.30;1.67;;;4.90;99.90;;;;;;5114285;28;20294;-86
2022/11/02 12:58:35;;;;;;;4.17;1.47;;;5.00;99.90;;;;;;5114271;28;20220;-86
2022/11/02 13:01:21;;;;;;;1.70;1.40;;;4.90;99.90;;;;;;5114063;28;20257;-87
2022/11/02 13:04:00;;;;;;;1.43;1.33;;;4.90;99.90;;;;;;5095760;28;20242;-86
2022/11/02 13:06:35;;;;;;;3.80;1.60;;;4.90;99.90;;;;;;5111863;28;20591;-87
2022/11/02 13:09:11;;;;;;;1.40;1.27;;;4.90;99.90;;;;;;5108790;28;20702;-86
2022/11/02 13:11:47;;;;;;;1.83;1.47;;;5.00;99.90;;;;;;5116446;28;20277;-87
2022/11/02 13:14:21;;;;;;;2.10;1.37;;;5.00;99.90;;;;;;5094512;28;20238;-86
2022/11/02 13:16:56;;;;;;;2.13;1.50;;;5.00;99.90;;;;;;5075819;28;20377;-86
2022/11/02 13:19:36;;;;;;;5.40;1.30;;;5.00;99.90;;;;;;5097041;28;20677;-87
2022/11/02 13:22:11;;;;;;;1.63;1.40;;;5.10;99.90;;;;;;5095669;28;20726;-86
2022/11/02 13:24:46;;;;;;;1.77;1.40;;;5.10;99.90;;;;;;5095997;28;20233;-86
2022/11/02 13:27:30;;;;;;;1.37;1.27;;;5.10;99.90;;;;;;5096105;28;20631;-86
2022/11/02 13:30:13;;;;;;;3.10;1.60;;;5.10;99.90;;;;;;5093919;28;20659;-86
2022/11/02 13:32:47;;;;;;;2.83;1.40;;;5.10;99.90;;;;;;5110712;28;20222;-86
2022/11/02 13:35:22;;;;;;;3.10;1.30;;;5.20;99.90;;;;;;5114300;28;20623;-85
2022/11/02 13:37:58;;;;;;;2.27;1.00;;;5.20;99.90;;;;;;5107438;28;20244;-85
2022/11/02 13:40:35;;;;;;;2.83;1.10;;;5.00;99.90;;;;;;5114281;28;20212;-86
2022/11/02 13:44:01;;;;;;;1.27;1.17;;;4.90;99.90;;;;;;5112320;28;20318;-86
2022/11/02 13:46:52;;;;;;;1.30;1.20;;;4.90;99.90;;;;;;5015646;28;20220;-86
2022/11/02 13:49:30;;;;;;;1.90;1.33;;;4.90;99.90;;;;;;5030724;28;20661;-87
2022/11/02 13:52:06;;;;;;;4.20;1.50;;;4.80;99.90;;;;;;5069928;28;20290;-85
2022/11/02 13:54:46;;;;;;;1.40;1.23;;;4.80;99.90;;;;;;5096821;28;20202;-86
2022/11/02 13:57:32;;;;;;;1.40;1.30;;;4.80;99.90;;;;;;5096473;28;20253;-86